sensor_id;sensor_type;location;lat;lon;timestamp;P1;durP1;ratioP1;P2;durP2;ratioP2
2712;SDS011;1366;47.988;7.856;2023-03-24T05:02:41;4.33;;;3.93;;
2712;SDS011;1366;47.988;7.856;2023-03-24T05:05:09;4.93;;;4.57;;
2712;SDS011;1366;47.988;7.856;2023-03-24T05:07:35;4.80;;;4.40;;
2712;SDS011;1366;47.988;7.856;2023-03-24T05:10:02;4.53;;;4.23;;
2712;SDS011;1366;47.988;7.856;2023-03-24T05:12:28;5.43;;;4.70;;
2712;SDS011;1366;47.988;7.856;2023-03-24T05:14:54;4.77;;;4.37;;
2712;SDS011;1366;47.988;7.856;2023-03-24T05:17:20;4.50;;;4.10;;
2712;SDS011;1366;47.988;7.856;2023-03-24T05:19:47;5.00;;;4.60;;
2712;SDS011;1366;47.988;7.856;2023-03-24T05:22:13;4.90;;;4.50;;
2712;SDS011;1366;47.988;7.856;2023-03-24T05:24:39;5.00;;;4.60;;
2712;SDS011;1366;47.988;7.856;2023-03-24T05:27:05;4.90;;;4.47;;
2712;SDS011;1366;47.988;7.856;2023-03-24T05:29:32;4.90;;;4.40;;
2712;SDS011;1366;47.988;7.856;2023-03-24T05:31:58;5.40;;;4.90;;
2712;SDS011;1366;47.988;7.856;2023-03-24T05:34:24;4.60;;;4.10;;
2712;SDS011;1366;47.988;7.856;2023-03-24T05:36:50;5.40;;;4.70;;
2712;SDS011;1366;47.988;7.856;2023-03-24T05:39:16;5.47;;;4.97;;
2712;SDS011;1366;47.988;7.856;2023-03-24T05:41:43;6.97;;;4.70;;
2712;SDS011;1366;47.988;7.856;2023-03-24T05:44:09;5.10;;;4.70;;
2712;SDS011;1366;47.988;7.856;2023-03-24T05:46:35;5.00;;;4.33;;
2712;SDS011;1366;47.988;7.856;2023-03-24T05:49:02;5.53;;;4.80;;
2712;SDS011;1366;47.988;7.856;2023-03-24T05:51:28;5.10;;;4.70;;
2712;SDS011;1366;47.988;7.856;2023-03-24T05:53:54;5.07;;;4.67;;
2712;SDS011;1366;47.988;7.856;2023-03-24T05:56:20;5.90;;;5.40;;
2712;SDS011;1366;47.988;7.856;2023-03-24T05:58:46;5.20;;;4.77;;
2712;SDS011;1366;47.988;7.856;2023-03-24T06:01:12;5.00;;;4.63;;
2712;SDS011;1366;47.988;7.856;2023-03-24T06:03:42;5.73;;;5.33;;
2712;SDS011;1366;47.988;7.856;2023-03-24T06:06:08;5.63;;;5.23;;
2712;SDS011;1366;47.988;7.856;2023-03-24T06:08:40;5.80;;;5.30;;
2712;SDS011;1366;47.988;7.856;2023-03-24T06:11:09;5.73;;;4.90;;
2712;SDS011;1366;47.988;7.856;2023-03-24T06:13:35;5.80;;;5.30;;
2712;SDS011;1366;47.988;7.856;2023-03-24T06:16:01;5.60;;;5.10;;
2712;SDS011;1366;47.988;7.856;2023-03-24T06:18:27;5.73;;;5.23;;
2712;SDS011;1366;47.988;7.856;2023-03-24T06:20:54;5.30;;;4.90;;
2712;SDS011;1366;47.988;7.856;2023-03-24T06:23:21;5.70;;;5.10;;
2712;SDS011;1366;47.988;7.856;2023-03-24T06:25:50;5.20;;;4.80;;
2712;SDS011;1366;47.988;7.856;2023-03-24T06:28:16;5.80;;;5.40;;
2712;SDS011;1366;47.988;7.856;2023-03-24T06:30:42;6.60;;;5.90;;
2712;SDS011;1366;47.988;7.856;2023-03-24T06:33:10;6.43;;;5.77;;
2712;SDS011;1366;47.988;7.856;2023-03-24T06:35:36;6.37;;;5.90;;
2712;SDS011;1366;47.988;7.856;2023-03-24T06:38:02;6.53;;;6.03;;
2712;SDS011;1366;47.988;7.856;2023-03-24T06:40:29;6.20;;;5.70;;
2712;SDS011;1366;47.988;7.856;2023-03-24T06:42:55;6.00;;;5.40;;
2712;SDS011;1366;47.988;7.856;2023-03-24T06:45:21;5.87;;;5.33;;
2712;SDS011;1366;47.988;7.856;2023-03-24T06:47:47;6.27;;;5.77;;
2712;SDS011;1366;47.988;7.856;2023-03-24T06:50:13;5.53;;;5.10;;
2712;SDS011;1366;47.988;7.856;2023-03-24T06:52:40;5.80;;;5.40;;
2712;SDS011;1366;47.988;7.856;2023-03-24T06:55:06;6.03;;;5.53;;
2712;SDS011;1366;47.988;7.856;2023-03-24T06:57:32;6.60;;;5.93;;
2712;SDS011;1366;47.988;7.856;2023-03-24T06:59:58;6.50;;;6.03;;
2712;SDS011;1366;47.988;7.856;2023-03-24T07:02:25;6.70;;;5.50;;
2712;SDS011;1366;47.988;7.856;2023-03-24T07:04:58;6.43;;;5.80;;
2712;SDS011;1366;47.988;7.856;2023-03-24T07:07:25;6.67;;;5.60;;
2712;SDS011;1366;47.988;7.856;2023-03-24T07:09:51;5.83;;;5.33;;
2712;SDS011;1366;47.988;7.856;2023-03-24T07:12:17;8.27;;;6.33;;
2712;SDS011;1366;47.988;7.856;2023-03-24T07:14:43;5.30;;;4.90;;
2712;SDS011;1366;47.988;7.856;2023-03-24T07:17:09;6.07;;;5.57;;
2712;SDS011;1366;47.988;7.856;2023-03-24T07:19:35;5.80;;;5.30;;
2712;SDS011;1366;47.988;7.856;2023-03-24T07:22:01;6.27;;;5.67;;
2712;SDS011;1366;47.988;7.856;2023-03-24T07:24:28;5.33;;;5.00;;
2712;SDS011;1366;47.988;7.856;2023-03-24T07:26:54;5.50;;;4.53;;
2712;SDS011;1366;47.988;7.856;2023-03-24T07:29:20;5.97;;;4.40;;
2712;SDS011;1366;47.988;7.856;2023-03-24T07:31:46;4.80;;;4.23;;
2712;SDS011;1366;47.988;7.856;2023-03-24T07:34:13;5.17;;;4.47;;
2712;SDS011;1366;47.988;7.856;2023-03-24T07:36:39;4.47;;;4.13;;
2712;SDS011;1366;47.988;7.856;2023-03-24T07:39:05;3.90;;;3.60;;
2712;SDS011;1366;47.988;7.856;2023-03-24T07:41:33;6.00;;;4.30;;
2712;SDS011;1366;47.988;7.856;2023-03-24T07:43:59;4.57;;;4.00;;
2712;SDS011;1366;47.988;7.856;2023-03-24T07:46:25;3.73;;;3.43;;
2712;SDS011;1366;47.988;7.856;2023-03-24T07:48:52;4.67;;;3.93;;
2712;SDS011;1366;47.988;7.856;2023-03-24T07:51:18;3.90;;;3.60;;
2712;SDS011;1366;47.988;7.856;2023-03-24T07:53:44;3.67;;;3.37;;
2712;SDS011;1366;47.988;7.856;2023-03-24T07:56:12;4.03;;;3.50;;
2712;SDS011;1366;47.988;7.856;2023-03-24T07:58:38;3.73;;;3.43;;
2712;SDS011;1366;47.988;7.856;2023-03-24T08:01:07;3.70;;;3.40;;
2712;SDS011;1366;47.988;7.856;2023-03-24T08:03:36;4.30;;;3.90;;
2712;SDS011;1366;47.988;7.856;2023-03-24T08:06:04;5.13;;;3.80;;
2712;SDS011;1366;47.988;7.856;2023-03-24T08:08:31;3.73;;;3.53;;
2712;SDS011;1366;47.988;7.856;2023-03-24T08:10:57;3.97;;;3.77;;
2712;SDS011;1366;47.988;7.856;2023-03-24T08:13:23;4.30;;;3.90;;
2712;SDS011;1366;47.988;7.856;2023-03-24T08:15:50;3.33;;;3.13;;
2712;SDS011;1366;47.988;7.856;2023-03-24T08:18:17;3.83;;;3.53;;
2712;SDS011;1366;47.988;7.856;2023-03-24T08:20:45;3.73;;;3.47;;
2712;SDS011;1366;47.988;7.856;2023-03-24T08:23:11;4.00;;;3.53;;
2712;SDS011;1366;47.988;7.856;2023-03-24T08:25:37;4.53;;;3.50;;
2712;SDS011;1366;47.988;7.856;2023-03-24T08:28:03;3.63;;;3.43;;
2712;SDS011;1366;47.988;7.856;2023-03-24T08:30:30;3.50;;;3.20;;
2712;SDS011;1366;47.988;7.856;2023-03-24T08:32:57;3.60;;;3.30;;
2712;SDS011;1366;47.988;7.856;2023-03-24T08:35:24;3.17;;;2.97;;
2712;SDS011;1366;47.988;7.856;2023-03-24T08:37:50;3.00;;;2.80;;
2712;SDS011;1366;47.988;7.856;2023-03-24T08:40:19;3.50;;;3.30;;
2712;SDS011;1366;47.988;7.856;2023-03-24T08:42:48;2.57;;;2.47;;
2712;SDS011;1366;47.988;7.856;2023-03-24T08:45:14;2.70;;;2.50;;
2712;SDS011;1366;47.988;7.856;2023-03-24T08:47:41;2.77;;;2.30;;
2712;SDS011;1366;47.988;7.856;2023-03-24T08:50:07;2.90;;;2.60;;
2712;SDS011;1366;47.988;7.856;2023-03-24T08:52:34;2.60;;;2.40;;
2712;SDS011;1366;47.988;7.856;2023-03-24T08:55:00;2.43;;;2.23;;
2712;SDS011;1366;47.988;7.856;2023-03-24T08:57:27;2.73;;;2.53;;
2712;SDS011;1366;47.988;7.856;2023-03-24T08:59:53;2.73;;;2.57;;
2712;SDS011;1366;47.988;7.856;2023-03-24T09:02:19;4.57;;;2.50;;
2712;SDS011;1366;47.988;7.856;2023-03-24T09:04:45;2.63;;;2.43;;
2712;SDS011;1366;47.988;7.856;2023-03-24T09:07:13;2.50;;;2.40;;
2712;SDS011;1366;47.988;7.856;2023-03-24T09:09:40;4.33;;;2.30;;
2712;SDS011;1366;47.988;7.856;2023-03-24T09:12:06;2.93;;;2.73;;
2712;SDS011;1366;47.988;7.856;2023-03-24T09:14:33;2.80;;;2.60;;
2712;SDS011;1366;47.988;7.856;2023-03-24T09:17:00;2.93;;;2.50;;
2712;SDS011;1366;47.988;7.856;2023-03-24T09:19:26;2.40;;;2.30;;
2712;SDS011;1366;47.988;7.856;2023-03-24T09:21:52;2.20;;;2.10;;
2712;SDS011;1366;47.988;7.856;2023-03-24T09:24:18;2.73;;;2.40;;
2712;SDS011;1366;47.988;7.856;2023-03-24T09:26:44;3.30;;;2.40;;
2712;SDS011;1366;47.988;7.856;2023-03-24T09:29:10;2.23;;;2.13;;
2712;SDS011;1366;47.988;7.856;2023-03-24T09:31:36;2.73;;;2.30;;
2712;SDS011;1366;47.988;7.856;2023-03-24T09:34:02;2.53;;;2.30;;
2712;SDS011;1366;47.988;7.856;2023-03-24T09:36:29;2.30;;;1.90;;
2712;SDS011;1366;47.988;7.856;2023-03-24T09:38:55;2.20;;;2.00;;
2712;SDS011;1366;47.988;7.856;2023-03-24T09:41:28;2.00;;;1.90;;
2712;SDS011;1366;47.988;7.856;2023-03-24T09:43:59;2.37;;;2.03;;
2712;SDS011;1366;47.988;7.856;2023-03-24T09:48:56;2.10;;;2.00;;
2712;SDS011;1366;47.988;7.856;2023-03-24T09:51:23;1.93;;;1.73;;
2712;SDS011;1366;47.988;7.856;2023-03-24T09:56:35;2.00;;;1.80;;
2712;SDS011;1366;47.988;7.856;2023-03-24T09:59:06;1.80;;;1.70;;
2712;SDS011;1366;47.988;7.856;2023-03-24T10:01:33;2.33;;;2.13;;
2712;SDS011;1366;47.988;7.856;2023-03-24T10:04:00;1.90;;;1.80;;
2712;SDS011;1366;47.988;7.856;2023-03-24T10:06:30;1.90;;;1.73;;
2712;SDS011;1366;47.988;7.856;2023-03-24T10:16:53;2.40;;;2.17;;
2712;SDS011;1366;47.988;7.856;2023-03-24T10:27:23;1.90;;;1.80;;
2712;SDS011;1366;47.988;7.856;2023-03-24T10:29:53;2.10;;;2.00;;
2712;SDS011;1366;47.988;7.856;2023-03-24T10:32:20;2.60;;;2.00;;
2712;SDS011;1366;47.988;7.856;2023-03-24T10:34:48;2.03;;;1.90;;
2712;SDS011;1366;47.988;7.856;2023-03-24T10:37:17;2.00;;;1.73;;
2712;SDS011;1366;47.988;7.856;2023-03-24T10:39:44;2.20;;;2.10;;
2712;SDS011;1366;47.988;7.856;2023-03-24T10:42:18;2.13;;;1.93;;
2712;SDS011;1366;47.988;7.856;2023-03-24T10:44:47;1.70;;;1.60;;
2712;SDS011;1366;47.988;7.856;2023-03-24T10:47:14;2.13;;;1.40;;
2712;SDS011;1366;47.988;7.856;2023-03-24T10:49:56;1.73;;;1.57;;
2712;SDS011;1366;47.988;7.856;2023-03-24T10:52:23;1.70;;;1.60;;
2712;SDS011;1366;47.988;7.856;2023-03-24T10:54:56;1.53;;;1.43;;
2712;SDS011;1366;47.988;7.856;2023-03-24T10:57:23;1.30;;;1.20;;
2712;SDS011;1366;47.988;7.856;2023-03-24T10:59:52;1.20;;;1.10;;
2712;SDS011;1366;47.988;7.856;2023-03-24T11:02:24;2.50;;;1.47;;
2712;SDS011;1366;47.988;7.856;2023-03-24T11:04:53;1.47;;;1.37;;
2712;SDS011;1366;47.988;7.856;2023-03-24T11:07:21;1.67;;;1.57;;
2712;SDS011;1366;47.988;7.856;2023-03-24T11:09:57;1.50;;;1.23;;
2712;SDS011;1366;47.988;7.856;2023-03-24T11:12:27;1.20;;;1.10;;
2712;SDS011;1366;47.988;7.856;2023-03-24T11:15:13;1.13;;;1.10;;
2712;SDS011;1366;47.988;7.856;2023-03-24T11:17:41;1.20;;;1.00;;
2712;SDS011;1366;47.988;7.856;2023-03-24T11:20:18;1.53;;;1.30;;
2712;SDS011;1366;47.988;7.856;2023-03-24T11:22:54;1.00;;;0.90;;
2712;SDS011;1366;47.988;7.856;2023-03-24T11:25:24;0.80;;;0.80;;
2712;SDS011;1366;47.988;7.856;2023-03-24T11:27:51;0.90;;;0.90;;
2712;SDS011;1366;47.988;7.856;2023-03-24T11:30:17;0.90;;;0.90;;
2712;SDS011;1366;47.988;7.856;2023-03-24T11:32:44;0.90;;;0.90;;
2712;SDS011;1366;47.988;7.856;2023-03-24T11:35:13;1.00;;;1.00;;
2712;SDS011;1366;47.988;7.856;2023-03-24T11:37:44;0.80;;;0.80;;
2712;SDS011;1366;47.988;7.856;2023-03-24T11:42:46;1.10;;;1.10;;
2712;SDS011;1366;47.988;7.856;2023-03-24T11:45:25;3.03;;;1.10;;
2712;SDS011;1366;47.988;7.856;2023-03-24T11:47:53;0.90;;;0.90;;
2712;SDS011;1366;47.988;7.856;2023-03-24T11:50:27;1.00;;;1.00;;
2712;SDS011;1366;47.988;7.856;2023-03-24T11:55:34;1.10;;;1.00;;
2712;SDS011;1366;47.988;7.856;2023-03-24T11:58:04;1.40;;;1.30;;
2712;SDS011;1366;47.988;7.856;2023-03-24T12:00:46;1.10;;;1.10;;
2712;SDS011;1366;47.988;7.856;2023-03-24T12:08:36;1.03;;;1.00;;
2712;SDS011;1366;47.988;7.856;2023-03-24T12:11:06;1.30;;;1.20;;
2712;SDS011;1366;47.988;7.856;2023-03-24T12:16:09;1.00;;;1.00;;
2712;SDS011;1366;47.988;7.856;2023-03-24T12:18:50;1.27;;;1.10;;
2712;SDS011;1366;47.988;7.856;2023-03-24T12:23:58;1.40;;;1.30;;
2712;SDS011;1366;47.988;7.856;2023-03-24T12:26:27;1.10;;;1.10;;
2712;SDS011;1366;47.988;7.856;2023-03-24T12:28:57;1.20;;;1.10;;
2712;SDS011;1366;47.988;7.856;2023-03-24T12:31:36;1.30;;;1.20;;
2712;SDS011;1366;47.988;7.856;2023-03-24T12:36:37;1.40;;;1.10;;
2712;SDS011;1366;47.988;7.856;2023-03-24T12:39:19;1.07;;;1.07;;
2712;SDS011;1366;47.988;7.856;2023-03-24T12:46:53;1.23;;;1.13;;
2712;SDS011;1366;47.988;7.856;2023-03-24T12:52:17;1.63;;;1.30;;
2712;SDS011;1366;47.988;7.856;2023-03-24T12:57:22;1.30;;;1.20;;
2712;SDS011;1366;47.988;7.856;2023-03-24T12:59:51;1.60;;;1.40;;
2712;SDS011;1366;47.988;7.856;2023-03-24T13:02:29;1.97;;;1.20;;
2712;SDS011;1366;47.988;7.856;2023-03-24T13:04:59;1.63;;;1.40;;
2712;SDS011;1366;47.988;7.856;2023-03-24T13:07:29;1.40;;;1.30;;
2712;SDS011;1366;47.988;7.856;2023-03-24T13:10:11;1.40;;;1.30;;
2712;SDS011;1366;47.988;7.856;2023-03-24T13:15:08;1.10;;;1.10;;
2712;SDS011;1366;47.988;7.856;2023-03-24T13:17:47;2.50;;;1.30;;
2712;SDS011;1366;47.988;7.856;2023-03-24T13:20:18;1.50;;;1.40;;
2712;SDS011;1366;47.988;7.856;2023-03-24T13:22:46;1.40;;;1.30;;
2712;SDS011;1366;47.988;7.856;2023-03-24T13:25:22;1.10;;;1.10;;
2712;SDS011;1366;47.988;7.856;2023-03-24T13:27:49;1.10;;;1.10;;
2712;SDS011;1366;47.988;7.856;2023-03-24T13:30:31;1.23;;;1.13;;
2712;SDS011;1366;47.988;7.856;2023-03-24T13:33:00;1.60;;;1.50;;
2712;SDS011;1366;47.988;7.856;2023-03-24T13:35:41;1.53;;;1.43;;
2712;SDS011;1366;47.988;7.856;2023-03-24T13:40:39;1.50;;;1.40;;
2712;SDS011;1366;47.988;7.856;2023-03-24T13:43:06;1.50;;;1.40;;
2712;SDS011;1366;47.988;7.856;2023-03-24T13:50:37;1.60;;;1.40;;
2712;SDS011;1366;47.988;7.856;2023-03-24T13:53:05;1.30;;;1.17;;
2712;SDS011;1366;47.988;7.856;2023-03-24T13:55:37;1.40;;;1.30;;
2712;SDS011;1366;47.988;7.856;2023-03-24T13:58:07;1.50;;;1.40;;
2712;SDS011;1366;47.988;7.856;2023-03-24T14:03:34;3.43;;;1.30;;
2712;SDS011;1366;47.988;7.856;2023-03-24T14:06:04;1.47;;;1.37;;
2712;SDS011;1366;47.988;7.856;2023-03-24T14:19:19;1.70;;;1.60;;
2712;SDS011;1366;47.988;7.856;2023-03-24T14:21:56;2.00;;;1.80;;
2712;SDS011;1366;47.988;7.856;2023-03-24T14:24:24;3.80;;;1.47;;
2712;SDS011;1366;47.988;7.856;2023-03-24T14:26:50;1.60;;;1.50;;
2712;SDS011;1366;47.988;7.856;2023-03-24T14:29:59;1.50;;;1.40;;
2712;SDS011;1366;47.988;7.856;2023-03-24T14:32:11;1.43;;;1.33;;
2712;SDS011;1366;47.988;7.856;2023-03-24T14:34:48;1.47;;;1.37;;
2712;SDS011;1366;47.988;7.856;2023-03-24T14:37:14;1.90;;;1.50;;
2712;SDS011;1366;47.988;7.856;2023-03-24T14:44:52;1.70;;;1.60;;
2712;SDS011;1366;47.988;7.856;2023-03-24T14:47:29;1.20;;;1.10;;
2712;SDS011;1366;47.988;7.856;2023-03-24T14:49:56;1.70;;;1.60;;
2712;SDS011;1366;47.988;7.856;2023-03-24T14:57:40;1.40;;;1.30;;
2712;SDS011;1366;47.988;7.856;2023-03-24T15:00:07;1.60;;;1.50;;
2712;SDS011;1366;47.988;7.856;2023-03-24T15:02:45;1.50;;;1.40;;
2712;SDS011;1366;47.988;7.856;2023-03-24T15:05:20;1.27;;;1.27;;
2712;SDS011;1366;47.988;7.856;2023-03-24T15:10:25;1.50;;;1.40;;
2712;SDS011;1366;47.988;7.856;2023-03-24T15:12:52;1.40;;;1.30;;
2712;SDS011;1366;47.988;7.856;2023-03-24T15:15:21;1.90;;;1.57;;
2712;SDS011;1366;47.988;7.856;2023-03-24T15:17:48;1.40;;;1.30;;
2712;SDS011;1366;47.988;7.856;2023-03-24T15:20:33;1.47;;;1.37;;
2712;SDS011;1366;47.988;7.856;2023-03-24T15:23:05;2.07;;;1.30;;
2712;SDS011;1366;47.988;7.856;2023-03-24T15:25:32;1.40;;;1.30;;
2712;SDS011;1366;47.988;7.856;2023-03-24T15:27:58;1.40;;;1.30;;
2712;SDS011;1366;47.988;7.856;2023-03-24T15:30:24;1.80;;;1.70;;
2712;SDS011;1366;47.988;7.856;2023-03-24T15:32:51;2.00;;;1.80;;
2712;SDS011;1366;47.988;7.856;2023-03-24T15:35:19;1.80;;;1.70;;
2712;SDS011;1366;47.988;7.856;2023-03-24T15:37:49;1.30;;;1.20;;
2712;SDS011;1366;47.988;7.856;2023-03-24T15:42:51;1.50;;;1.40;;
2712;SDS011;1366;47.988;7.856;2023-03-24T15:47:56;1.50;;;1.40;;
2712;SDS011;1366;47.988;7.856;2023-03-24T15:50:39;1.87;;;1.77;;
2712;SDS011;1366;47.988;7.856;2023-03-24T15:55:44;1.33;;;1.23;;
2712;SDS011;1366;47.988;7.856;2023-03-24T15:58:19;1.67;;;1.50;;
2712;SDS011;1366;47.988;7.856;2023-03-24T16:00:46;1.50;;;1.40;;
2712;SDS011;1366;47.988;7.856;2023-03-24T16:03:12;1.53;;;1.43;;
2712;SDS011;1366;47.988;7.856;2023-03-24T16:05:46;1.83;;;1.73;;
2712;SDS011;1366;47.988;7.856;2023-03-24T16:08:56;1.50;;;1.40;;
2712;SDS011;1366;47.988;7.856;2023-03-24T16:11:05;1.80;;;1.70;;
2712;SDS011;1366;47.988;7.856;2023-03-24T16:13:35;1.60;;;1.50;;
2712;SDS011;1366;47.988;7.856;2023-03-24T16:18:36;2.30;;;2.10;;
2712;SDS011;1366;47.988;7.856;2023-03-24T16:23:38;2.50;;;2.30;;
2712;SDS011;1366;47.988;7.856;2023-03-24T16:26:17;2.80;;;2.10;;
2712;SDS011;1366;47.988;7.856;2023-03-24T16:28:44;2.00;;;1.90;;
2712;SDS011;1366;47.988;7.856;2023-03-24T16:31:21;2.07;;;1.97;;
2712;SDS011;1366;47.988;7.856;2023-03-24T16:33:49;2.10;;;1.90;;
2712;SDS011;1366;47.988;7.856;2023-03-24T16:36:16;1.70;;;1.53;;
2712;SDS011;1366;47.988;7.856;2023-03-24T16:38:43;1.83;;;1.73;;
2712;SDS011;1366;47.988;7.856;2023-03-24T16:41:10;1.60;;;1.50;;
2712;SDS011;1366;47.988;7.856;2023-03-24T16:43:39;1.80;;;1.70;;
2712;SDS011;1366;47.988;7.856;2023-03-24T16:46:10;2.60;;;1.60;;
2712;SDS011;1366;47.988;7.856;2023-03-24T16:48:37;1.70;;;1.60;;
2712;SDS011;1366;47.988;7.856;2023-03-24T16:51:03;3.50;;;1.67;;
2712;SDS011;1366;47.988;7.856;2023-03-24T16:53:29;1.80;;;1.70;;
2712;SDS011;1366;47.988;7.856;2023-03-24T16:55:55;3.77;;;1.73;;
2712;SDS011;1366;47.988;7.856;2023-03-24T16:58:22;1.60;;;1.50;;
2712;SDS011;1366;47.988;7.856;2023-03-24T17:00:48;1.80;;;1.70;;
2712;SDS011;1366;47.988;7.856;2023-03-24T17:03:15;1.50;;;1.40;;
2712;SDS011;1366;47.988;7.856;2023-03-24T17:05:43;1.70;;;1.60;;
2712;SDS011;1366;47.988;7.856;2023-03-24T17:08:13;1.67;;;1.53;;
2712;SDS011;1366;47.988;7.856;2023-03-24T17:10:40;1.70;;;1.53;;
2712;SDS011;1366;47.988;7.856;2023-03-24T17:13:06;2.00;;;1.90;;
2712;SDS011;1366;47.988;7.856;2023-03-24T17:15:33;1.70;;;1.60;;
2712;SDS011;1366;47.988;7.856;2023-03-24T17:17:59;1.97;;;1.77;;
2712;SDS011;1366;47.988;7.856;2023-03-24T17:20:25;1.57;;;1.40;;
2712;SDS011;1366;47.988;7.856;2023-03-24T17:22:53;2.17;;;2.00;;
2712;SDS011;1366;47.988;7.856;2023-03-24T17:25:21;1.60;;;1.50;;
2712;SDS011;1366;47.988;7.856;2023-03-24T17:27:48;2.00;;;1.80;;
2712;SDS011;1366;47.988;7.856;2023-03-24T17:30:16;1.87;;;1.77;;
2712;SDS011;1366;47.988;7.856;2023-03-24T17:32:42;1.93;;;1.80;;
2712;SDS011;1366;47.988;7.856;2023-03-24T17:35:09;1.70;;;1.60;;
2712;SDS011;1366;47.988;7.856;2023-03-24T17:37:35;1.93;;;1.83;;
2712;SDS011;1366;47.988;7.856;2023-03-24T17:40:02;1.83;;;1.73;;
2712;SDS011;1366;47.988;7.856;2023-03-24T17:42:33;2.27;;;1.60;;
2712;SDS011;1366;47.988;7.856;2023-03-24T17:44:59;2.30;;;1.67;;
2712;SDS011;1366;47.988;7.856;2023-03-24T17:47:26;2.60;;;1.90;;
2712;SDS011;1366;47.988;7.856;2023-03-24T17:49:52;2.03;;;1.63;;
2712;SDS011;1366;47.988;7.856;2023-03-24T17:52:18;1.70;;;1.60;;
2712;SDS011;1366;47.988;7.856;2023-03-24T17:54:45;2.00;;;1.80;;
2712;SDS011;1366;47.988;7.856;2023-03-24T17:57:11;1.60;;;1.50;;
2712;SDS011;1366;47.988;7.856;2023-03-24T17:59:37;2.00;;;1.80;;
2712;SDS011;1366;47.988;7.856;2023-03-24T18:02:04;3.63;;;1.73;;
2712;SDS011;1366;47.988;7.856;2023-03-24T18:04:30;2.10;;;2.00;;
2712;SDS011;1366;47.988;7.856;2023-03-24T18:06:57;3.17;;;2.13;;
2712;SDS011;1366;47.988;7.856;2023-03-24T18:09:24;1.60;;;1.50;;
2712;SDS011;1366;47.988;7.856;2023-03-24T18:11:51;1.77;;;1.67;;
2712;SDS011;1366;47.988;7.856;2023-03-24T18:14:17;2.37;;;1.90;;
2712;SDS011;1366;47.988;7.856;2023-03-24T18:16:43;2.07;;;1.97;;
2712;SDS011;1366;47.988;7.856;2023-03-24T18:19:09;1.83;;;1.73;;
2712;SDS011;1366;47.988;7.856;2023-03-24T18:21:35;2.10;;;1.90;;
2712;SDS011;1366;47.988;7.856;2023-03-24T18:24:01;1.80;;;1.70;;
2712;SDS011;1366;47.988;7.856;2023-03-24T18:26:28;3.40;;;1.70;;
2712;SDS011;1366;47.988;7.856;2023-03-24T18:28:54;1.87;;;1.77;;
2712;SDS011;1366;47.988;7.856;2023-03-24T18:31:21;1.90;;;1.80;;
2712;SDS011;1366;47.988;7.856;2023-03-24T18:33:50;1.90;;;1.80;;
2712;SDS011;1366;47.988;7.856;2023-03-24T18:36:17;1.73;;;1.63;;
2712;SDS011;1366;47.988;7.856;2023-03-24T18:38:53;2.20;;;1.60;;
2712;SDS011;1366;47.988;7.856;2023-03-24T18:41:20;2.33;;;1.73;;
2712;SDS011;1366;47.988;7.856;2023-03-24T18:43:48;1.80;;;1.70;;
2712;SDS011;1366;47.988;7.856;2023-03-24T18:46:15;1.80;;;1.70;;
2712;SDS011;1366;47.988;7.856;2023-03-24T18:48:41;1.70;;;1.60;;
2712;SDS011;1366;47.988;7.856;2023-03-24T18:51:08;1.70;;;1.60;;
2712;SDS011;1366;47.988;7.856;2023-03-24T18:53:34;2.50;;;1.83;;
2712;SDS011;1366;47.988;7.856;2023-03-24T18:56:00;1.90;;;1.80;;
2712;SDS011;1366;47.988;7.856;2023-03-24T18:58:27;2.00;;;1.80;;
2712;SDS011;1366;47.988;7.856;2023-03-24T19:00:55;1.90;;;1.80;;
2712;SDS011;1366;47.988;7.856;2023-03-24T19:03:21;3.43;;;2.27;;
2712;SDS011;1366;47.988;7.856;2023-03-24T19:05:48;3.67;;;2.17;;
2712;SDS011;1366;47.988;7.856;2023-03-24T19:08:17;2.00;;;1.90;;
2712;SDS011;1366;47.988;7.856;2023-03-24T19:10:43;2.27;;;2.10;;
2712;SDS011;1366;47.988;7.856;2023-03-24T19:13:10;1.80;;;1.70;;
2712;SDS011;1366;47.988;7.856;2023-03-24T19:15:37;1.80;;;1.70;;
2712;SDS011;1366;47.988;7.856;2023-03-24T19:18:03;2.10;;;1.83;;
2712;SDS011;1366;47.988;7.856;2023-03-24T19:20:29;2.43;;;2.00;;
2712;SDS011;1366;47.988;7.856;2023-03-24T19:22:58;2.33;;;2.13;;
2712;SDS011;1366;47.988;7.856;2023-03-24T19:25:24;2.23;;;1.67;;
2712;SDS011;1366;47.988;7.856;2023-03-24T19:27:50;2.00;;;1.90;;
2712;SDS011;1366;47.988;7.856;2023-03-24T19:30:17;2.47;;;2.03;;
2712;SDS011;1366;47.988;7.856;2023-03-24T19:32:43;2.77;;;2.13;;
2712;SDS011;1366;47.988;7.856;2023-03-24T19:35:10;2.83;;;2.10;;
2712;SDS011;1366;47.988;7.856;2023-03-24T19:37:37;2.20;;;2.00;;
2712;SDS011;1366;47.988;7.856;2023-03-24T19:40:03;3.10;;;2.40;;
2712;SDS011;1366;47.988;7.856;2023-03-24T19:42:35;3.00;;;2.00;;
2712;SDS011;1366;47.988;7.856;2023-03-24T19:45:05;2.87;;;1.80;;
2712;SDS011;1366;47.988;7.856;2023-03-24T19:47:31;1.87;;;1.77;;
2712;SDS011;1366;47.988;7.856;2023-03-24T19:49:58;1.97;;;1.87;;
2712;SDS011;1366;47.988;7.856;2023-03-24T19:52:24;2.97;;;2.13;;
2712;SDS011;1366;47.988;7.856;2023-03-24T19:54:50;1.80;;;1.70;;
2712;SDS011;1366;47.988;7.856;2023-03-24T19:57:17;1.70;;;1.60;;
2712;SDS011;1366;47.988;7.856;2023-03-24T19:59:43;2.03;;;1.90;;
2712;SDS011;1366;47.988;7.856;2023-03-24T20:02:13;2.03;;;1.93;;
2712;SDS011;1366;47.988;7.856;2023-03-24T20:04:40;2.90;;;2.13;;
2712;SDS011;1366;47.988;7.856;2023-03-24T20:07:06;2.33;;;1.70;;
2712;SDS011;1366;47.988;7.856;2023-03-24T20:09:32;1.80;;;1.70;;
2712;SDS011;1366;47.988;7.856;2023-03-24T20:11:58;1.80;;;1.70;;
2712;SDS011;1366;47.988;7.856;2023-03-24T20:14:25;2.47;;;2.10;;
2712;SDS011;1366;47.988;7.856;2023-03-24T20:16:52;2.60;;;2.10;;
2712;SDS011;1366;47.988;7.856;2023-03-24T20:19:18;3.13;;;1.87;;
2712;SDS011;1366;47.988;7.856;2023-03-24T20:21:44;2.33;;;2.07;;
2712;SDS011;1366;47.988;7.856;2023-03-24T20:24:10;2.07;;;1.93;;
2712;SDS011;1366;47.988;7.856;2023-03-24T20:26:38;1.90;;;1.70;;
2712;SDS011;1366;47.988;7.856;2023-03-24T20:29:05;3.13;;;1.90;;
2712;SDS011;1366;47.988;7.856;2023-03-24T20:31:31;2.33;;;1.80;;
2712;SDS011;1366;47.988;7.856;2023-03-24T20:33:57;4.23;;;1.90;;
2712;SDS011;1366;47.988;7.856;2023-03-24T20:36:23;3.60;;;2.33;;
2712;SDS011;1366;47.988;7.856;2023-03-24T20:38:50;1.77;;;1.67;;
2712;SDS011;1366;47.988;7.856;2023-03-24T20:41:17;2.10;;;1.90;;
2712;SDS011;1366;47.988;7.856;2023-03-24T20:43:43;2.70;;;2.50;;
2712;SDS011;1366;47.988;7.856;2023-03-24T20:46:09;2.50;;;2.30;;
2712;SDS011;1366;47.988;7.856;2023-03-24T20:48:37;2.70;;;1.83;;
2712;SDS011;1366;47.988;7.856;2023-03-24T20:51:03;3.83;;;2.43;;
2712;SDS011;1366;47.988;7.856;2023-03-24T20:53:30;2.50;;;2.00;;
2712;SDS011;1366;47.988;7.856;2023-03-24T20:56:05;2.43;;;2.10;;
2712;SDS011;1366;47.988;7.856;2023-03-24T20:58:32;1.93;;;1.70;;
2712;SDS011;1366;47.988;7.856;2023-03-24T21:00:58;3.00;;;2.33;;
2712;SDS011;1366;47.988;7.856;2023-03-24T21:03:27;2.33;;;1.80;;
2712;SDS011;1366;47.988;7.856;2023-03-24T21:05:53;3.23;;;2.70;;
2712;SDS011;1366;47.988;7.856;2023-03-24T21:08:19;2.33;;;1.70;;
2712;SDS011;1366;47.988;7.856;2023-03-24T21:10:45;3.10;;;2.00;;
2712;SDS011;1366;47.988;7.856;2023-03-24T21:13:12;2.13;;;1.83;;
2712;SDS011;1366;47.988;7.856;2023-03-24T21:15:42;2.13;;;1.90;;
2712;SDS011;1366;47.988;7.856;2023-03-24T21:18:08;2.60;;;1.80;;
2712;SDS011;1366;47.988;7.856;2023-03-24T21:20:34;2.33;;;1.80;;
2712;SDS011;1366;47.988;7.856;2023-03-24T21:23:01;2.03;;;1.80;;
2712;SDS011;1366;47.988;7.856;2023-03-24T21:25:29;3.53;;;1.87;;
2712;SDS011;1366;47.988;7.856;2023-03-24T21:27:55;2.60;;;1.90;;
2712;SDS011;1366;47.988;7.856;2023-03-24T21:30:22;2.70;;;2.07;;
2712;SDS011;1366;47.988;7.856;2023-03-24T21:32:50;2.23;;;1.90;;
2712;SDS011;1366;47.988;7.856;2023-03-24T21:35:17;3.33;;;2.00;;
2712;SDS011;1366;47.988;7.856;2023-03-24T21:37:44;2.50;;;2.07;;
2712;SDS011;1366;47.988;7.856;2023-03-24T21:40:11;1.80;;;1.70;;
2712;SDS011;1366;47.988;7.856;2023-03-24T21:42:37;2.60;;;1.70;;
2712;SDS011;1366;47.988;7.856;2023-03-24T21:45:10;3.00;;;1.80;;
2712;SDS011;1366;47.988;7.856;2023-03-24T21:47:42;2.43;;;1.93;;
2712;SDS011;1366;47.988;7.856;2023-03-24T21:50:10;2.20;;;1.90;;
2712;SDS011;1366;47.988;7.856;2023-03-24T21:52:36;7.40;;;3.00;;
2712;SDS011;1366;47.988;7.856;2023-03-24T21:55:11;2.53;;;1.87;;
2712;SDS011;1366;47.988;7.856;2023-03-24T21:57:42;2.30;;;2.00;;
2712;SDS011;1366;47.988;7.856;2023-03-24T22:00:10;2.33;;;1.90;;
2712;SDS011;1366;47.988;7.856;2023-03-24T22:02:39;2.00;;;1.90;;